createdAt,value
2018-02-07T00:00:28.071Z,76.74
2018-02-07T00:01:28.061Z,77.12
2018-02-07T00:02:28.044Z,76.74
2018-02-07T00:03:28.037Z,77.50
2018-02-07T00:04:28.024Z,77.12
2018-02-07T00:05:28.016Z,77.50
2018-02-07T00:06:28.006Z,77.78
2018-02-07T00:07:27.986Z,77.78
2018-02-07T00:08:27.974Z,77.50
2018-02-07T00:09:27.972Z,77.50
2018-02-07T00:10:27.955Z,77.97
2018-02-07T00:11:27.944Z,77.69
2018-02-07T00:12:27.932Z,77.59
2018-02-07T00:13:27.918Z,78.16
2018-02-07T00:14:27.909Z,78.81
2018-02-07T00:15:27.901Z,78.25
2018-02-07T00:16:27.884Z,78.16
2018-02-07T00:17:27.927Z,78.72
2018-02-07T00:18:28.108Z,78.81
2018-02-07T00:19:27.848Z,78.53
2018-02-07T00:20:27.831Z,78.34
2018-02-07T00:21:27.823Z,78.25
2018-02-07T00:22:27.812Z,78.44
2018-02-07T00:23:27.796Z,78.53
2018-02-07T00:24:27.789Z,78.44
2018-02-07T00:25:27.777Z,78.06
2018-02-07T00:26:27.766Z,78.53
2018-02-07T00:27:27.754Z,78.53
2018-02-07T00:28:27.743Z,78.63
2018-02-07T00:29:27.724Z,78.72
2018-02-07T00:30:27.712Z,78.06
2018-02-07T00:31:27.707Z,77.97
2018-02-07T00:32:27.698Z,77.97
2018-02-07T00:33:27.677Z,77.69
2018-02-07T00:34:27.668Z,77.69
2018-02-07T00:35:27.652Z,78.16
2018-02-07T00:36:27.643Z,78.25
2018-02-07T00:37:27.631Z,77.87
2018-02-07T00:38:27.636Z,77.78
2018-02-07T00:39:27.604Z,77.97
2018-02-07T00:40:27.593Z,77.69
2018-02-07T00:41:27.584Z,78.06
2018-02-07T00:42:27.581Z,78.72
2018-02-07T00:43:27.577Z,78.53
2018-02-07T00:44:27.547Z,78.91
2018-02-07T00:45:27.533Z,79.10
2018-02-07T00:46:27.520Z,78.81
2018-02-07T00:47:27.510Z,78.16
2018-02-07T00:48:27.548Z,78.25
2018-02-07T00:49:27.535Z,78.72
2018-02-07T00:50:27.474Z,78.81
2018-02-07T00:51:27.461Z,78.06
2018-02-07T00:52:27.451Z,78.34
2018-02-07T00:53:27.439Z,78.63
2018-02-07T00:54:27.428Z,78.63
2018-02-07T00:55:27.414Z,78.81
2018-02-07T00:56:27.396Z,79.10
2018-02-07T00:57:27.395Z,78.78
2018-02-07T00:58:27.379Z,79.82
2018-02-07T00:59:27.365Z,79.82
2018-02-07T01:00:27.413Z,79.16
2018-02-07T01:01:27.337Z,79.72
2018-02-07T01:02:27.324Z,79.10
2018-02-07T01:03:27.315Z,79.63
2018-02-07T01:04:27.312Z,79.63
2018-02-07T01:05:27.291Z,78.97
2018-02-07T01:06:27.276Z,79.25
2018-02-07T01:07:27.264Z,78.68
2018-02-07T01:08:27.248Z,79.06
2018-02-07T01:09:27.244Z,79.25
2018-02-07T01:10:27.229Z,79.67
2018-02-07T01:11:27.213Z,79.82
2018-02-07T01:12:27.203Z,79.25
2018-02-07T01:13:27.192Z,78.63
2018-02-07T01:14:27.182Z,78.81
2018-02-07T01:15:27.165Z,79.16
2018-02-07T01:16:27.153Z,78.78
2018-02-07T01:17:27.137Z,79.53
2018-02-07T01:18:27.126Z,79.35
2018-02-07T01:19:27.117Z,79.53
2018-02-07T01:20:27.111Z,79.29
2018-02-07T01:21:27.088Z,78.50
2018-02-07T01:22:27.076Z,78.53
2018-02-07T01:23:27.065Z,78.40
2018-02-07T01:24:27.053Z,79.16
2018-02-07T01:25:27.049Z,78.68
2018-02-07T01:26:27.032Z,78.91
2018-02-07T01:27:27.012Z,78.78
2018-02-07T01:28:27.007Z,78.68
2018-02-07T01:29:26.993Z,78.59
2018-02-07T01:30:26.988Z,79.44
2018-02-07T01:31:26.974Z,79.16
2018-02-07T01:32:27.047Z,79.06
2018-02-07T01:33:26.945Z,79.06
2018-02-07T01:34:26.929Z,79.63
2018-02-07T01:35:26.919Z,79.16
2018-02-07T01:36:26.904Z,79.16
2018-02-07T01:37:26.898Z,78.59
2018-02-07T01:38:26.886Z,78.97
2018-02-07T01:39:26.870Z,79.35
2018-02-07T01:40:26.863Z,79.63
2018-02-07T01:41:26.841Z,79.72
2018-02-07T01:42:26.830Z,79.82
2018-02-07T01:43:26.821Z,79.91
2018-02-07T01:44:26.858Z,78.97
2018-02-07T01:45:26.797Z,78.97
2018-02-07T01:46:26.782Z,78.87
2018-02-07T01:47:26.765Z,78.68
2018-02-07T01:48:26.753Z,78.97
2018-02-07T01:49:26.747Z,78.87
2018-02-07T01:50:26.740Z,78.50
2018-02-07T01:51:26.721Z,79.63
2018-02-07T01:52:26.711Z,79.35
2018-02-07T01:53:26.711Z,79.91
2018-02-07T01:54:26.685Z,79.72
2018-02-07T01:55:26.682Z,80.19
2018-02-07T01:56:26.664Z,80.10
2018-02-07T01:57:26.654Z,79.44
2018-02-07T01:58:26.635Z,79.35
2018-02-07T01:59:26.622Z,79.72
2018-02-07T02:00:26.611Z,80.10
2018-02-07T02:01:26.594Z,80.00
2018-02-07T02:02:26.581Z,80.10
2018-02-07T02:03:26.572Z,79.44
2018-02-07T02:04:26.558Z,79.82
2018-02-07T02:05:26.550Z,79.44
2018-02-07T02:06:26.537Z,79.82
2018-02-07T02:07:26.521Z,79.53
2018-02-07T02:08:26.511Z,79.63
2018-02-07T02:09:26.502Z,78.97
2018-02-07T02:10:26.488Z,79.82
2018-02-07T02:11:26.479Z,79.63
2018-02-07T02:12:26.762Z,79.91
2018-02-07T02:13:26.449Z,79.25
2018-02-07T02:14:26.435Z,79.53
2018-02-07T02:15:26.424Z,79.44
2018-02-07T02:16:26.413Z,80.29
2018-02-07T02:17:26.398Z,79.82
2018-02-07T02:18:26.689Z,80.29
2018-02-07T02:19:26.375Z,80.10
2018-02-07T02:20:26.361Z,79.63
2018-02-07T02:21:26.349Z,79.82
2018-02-07T02:22:26.337Z,80.38
2018-02-07T02:23:26.318Z,79.72
2018-02-07T02:24:26.612Z,80.29
2018-02-07T02:25:26.299Z,80.00
2018-02-07T02:26:26.291Z,79.82
2018-02-07T02:27:26.276Z,79.53
2018-02-07T02:28:26.268Z,80.00
2018-02-07T02:29:26.255Z,79.35
2018-02-07T02:30:26.736Z,79.91
2018-02-07T02:31:26.227Z,78.87
2018-02-07T02:32:26.215Z,78.59
2018-02-07T02:33:26.195Z,78.81
2018-02-07T02:34:26.183Z,78.63
2018-02-07T02:35:26.172Z,79.19
2018-02-07T02:36:26.459Z,78.63
2018-02-07T02:37:26.151Z,78.68
2018-02-07T02:38:26.140Z,78.68
2018-02-07T02:39:26.129Z,79.06
2018-02-07T02:40:26.113Z,78.68
2018-02-07T02:41:26.107Z,78.50
2018-02-07T02:42:26.392Z,79.16
2018-02-07T02:43:26.079Z,79.53
2018-02-07T02:44:26.070Z,79.25
2018-02-07T02:45:26.049Z,79.72
2018-02-07T02:46:26.037Z,79.63
2018-02-07T02:47:26.038Z,79.44
2018-02-07T02:48:26.564Z,80.29
2018-02-07T02:49:25.998Z,80.19
2018-02-07T02:50:25.985Z,80.85
2018-02-07T02:51:25.975Z,80.48
2018-02-07T02:52:25.963Z,80.85
2018-02-07T02:53:25.958Z,80.00
2018-02-07T02:54:26.246Z,80.00
2018-02-07T02:55:25.925Z,79.72
2018-02-07T02:56:25.920Z,79.82
2018-02-07T02:57:25.910Z,80.10
2018-02-07T02:58:25.895Z,80.48
2018-02-07T02:59:25.877Z,79.91
2018-02-07T03:00:26.166Z,79.91
2018-02-07T03:01:25.856Z,79.91
2018-02-07T03:02:25.841Z,80.10
2018-02-07T03:03:25.830Z,79.44
2018-02-07T03:04:25.822Z,79.72
2018-02-07T03:05:25.804Z,79.25
2018-02-07T03:06:26.366Z,79.72
2018-02-07T03:07:25.790Z,80.10
2018-02-07T03:08:25.766Z,80.48
2018-02-07T03:09:25.753Z,80.76
2018-02-07T03:10:25.746Z,81.14
2018-02-07T03:11:25.739Z,80.76
2018-02-07T03:12:26.013Z,80.66
2018-02-07T03:13:25.708Z,81.33
2018-02-07T03:14:25.692Z,80.76
2018-02-07T03:15:25.681Z,80.48
2018-02-07T03:16:25.670Z,79.72
2018-02-07T03:17:25.654Z,80.38
2018-02-07T03:18:25.942Z,80.57
2018-02-07T03:19:25.633Z,80.48
2018-02-07T03:20:25.616Z,80.48
2018-02-07T03:21:25.604Z,80.85
2018-02-07T03:22:25.588Z,80.76
2018-02-07T03:23:25.580Z,80.66
2018-02-07T03:24:25.865Z,80.10
2018-02-07T03:25:25.557Z,80.00
2018-02-07T03:26:25.546Z,80.85
2018-02-07T03:27:25.528Z,80.57
2018-02-07T03:28:25.515Z,79.91
2018-02-07T03:29:25.519Z,80.19
2018-02-07T03:30:25.794Z,80.19
2018-02-07T03:31:25.480Z,80.00
2018-02-07T03:32:25.467Z,79.72
2018-02-07T03:33:25.450Z,80.00
2018-02-07T03:34:25.444Z,80.57
2018-02-07T03:35:25.435Z,80.76
2018-02-07T03:36:25.719Z,80.10
2018-02-07T03:37:25.409Z,80.29
2018-02-07T03:38:25.391Z,80.00
2018-02-07T03:39:25.381Z,79.82
2018-02-07T03:40:25.362Z,80.76
2018-02-07T03:41:25.356Z,80.48
2018-02-07T03:42:25.644Z,80.48
2018-02-07T03:43:25.328Z,81.33
2018-02-07T03:44:25.318Z,81.90
2018-02-07T03:45:25.300Z,81.42
2018-02-07T03:46:25.292Z,81.23
2018-02-07T03:47:25.278Z,81.42
2018-02-07T03:48:25.570Z,81.52
2018-02-07T03:49:25.261Z,81.23
2018-02-07T03:50:25.247Z,81.33
2018-02-07T03:51:25.230Z,81.52
2018-02-07T03:52:25.248Z,81.61
2018-02-07T03:53:25.204Z,81.80
2018-02-07T03:54:25.546Z,81.33
2018-02-07T03:55:25.179Z,81.42
2018-02-07T03:56:25.170Z,81.80
2018-02-07T03:57:25.153Z,81.61
2018-02-07T03:58:25.138Z,80.57
2018-02-07T03:59:25.129Z,81.04
2018-02-07T04:00:25.516Z,81.52
2018-02-07T04:01:25.109Z,81.71
2018-02-07T04:02:25.088Z,81.52
2018-02-07T04:03:25.077Z,81.14
2018-02-07T04:04:25.059Z,79.72
2018-02-07T04:05:25.051Z,80.48
2018-02-07T04:06:25.339Z,80.38
2018-02-07T04:07:25.022Z,80.00
2018-02-07T04:08:25.010Z,79.91
2018-02-07T04:09:25.003Z,79.82
2018-02-07T04:10:24.994Z,80.76
2018-02-07T04:11:24.974Z,80.66
2018-02-07T04:12:25.265Z,80.85
2018-02-07T04:13:24.950Z,80.38
2018-02-07T04:14:24.936Z,80.29
2018-02-07T04:15:24.928Z,80.76
2018-02-07T04:16:24.912Z,80.57
2018-02-07T04:17:24.897Z,81.04
2018-02-07T04:18:25.088Z,81.04
2018-02-07T04:19:24.871Z,80.76
2018-02-07T04:20:24.870Z,80.76
2018-02-07T04:21:24.850Z,80.48
2018-02-07T04:22:24.836Z,80.57
2018-02-07T04:23:24.818Z,80.66
2018-02-07T04:24:24.805Z,80.19
2018-02-07T04:25:24.811Z,80.95
2018-02-07T04:26:24.853Z,80.76
2018-02-07T04:27:24.772Z,80.48
2018-02-07T04:28:24.762Z,80.66
2018-02-07T04:29:24.743Z,80.95
2018-02-07T04:30:24.732Z,81.61
2018-02-07T04:31:24.722Z,80.66
2018-02-07T04:32:24.710Z,80.66
2018-02-07T04:33:24.692Z,80.66
2018-02-07T04:34:24.683Z,80.66
2018-02-07T04:35:24.667Z,80.66
2018-02-07T04:36:24.652Z,80.66
2018-02-07T04:37:24.646Z,80.72
2018-02-07T04:38:24.639Z,80.91
2018-02-07T04:39:24.615Z,81.48
2018-02-07T04:40:24.604Z,81.38
2018-02-07T04:41:24.595Z,81.38
2018-02-07T04:42:24.581Z,80.72
2018-02-07T04:43:24.569Z,80.38
2018-02-07T04:44:24.558Z,80.29
2018-02-07T04:45:24.540Z,80.82
2018-02-07T04:46:24.523Z,81.10
2018-02-07T04:47:24.520Z,80.72
2018-02-07T04:48:24.505Z,80.48
2018-02-07T04:49:24.485Z,80.10
2018-02-07T04:50:24.474Z,79.82
2018-02-07T04:51:24.511Z,79.63
2018-02-07T04:52:24.445Z,79.63
2018-02-07T04:53:24.440Z,79.53
2018-02-07T04:54:24.429Z,79.53
2018-02-07T04:55:24.406Z,79.53
2018-02-07T04:56:24.395Z,79.72
2018-02-07T04:57:24.385Z,79.68
2018-02-07T04:58:24.373Z,80.25
2018-02-07T04:59:24.361Z,80.44
2018-02-07T05:00:24.343Z,80.38
2018-02-07T05:01:24.328Z,80.00
2018-02-07T05:02:24.313Z,80.29
2018-02-07T05:03:24.308Z,79.53
2018-02-07T05:04:24.297Z,79.87
2018-02-07T05:05:24.278Z,80.25
2018-02-07T05:06:24.268Z,80.91
2018-02-07T05:07:24.253Z,80.72
2018-02-07T05:08:24.236Z,80.63
2018-02-07T05:09:24.229Z,80.63
2018-02-07T05:10:24.215Z,80.63
2018-02-07T05:11:24.196Z,80.53
2018-02-07T05:12:24.182Z,80.63
2018-02-07T05:13:24.172Z,80.72
2018-02-07T05:14:24.160Z,80.34
2018-02-07T05:15:24.148Z,80.53
2018-02-07T05:16:24.136Z,80.06
2018-02-07T05:17:24.120Z,80.06
2018-02-07T05:18:24.105Z,79.91
2018-02-07T05:19:24.097Z,79.87
2018-02-07T05:20:24.087Z,79.68
2018-02-07T05:21:24.066Z,79.21
2018-02-07T05:22:24.053Z,79.59
2018-02-07T05:23:24.107Z,79.78
2018-02-07T05:24:24.027Z,80.82
2018-02-07T05:25:24.021Z,81.48
2018-02-07T05:26:24.002Z,81.38
2018-02-07T05:27:23.985Z,81.29
2018-02-07T05:28:23.976Z,81.48
2018-02-07T05:29:23.963Z,80.91
2018-02-07T05:30:23.951Z,80.72
2018-02-07T05:31:23.943Z,80.25
2018-02-07T05:32:23.921Z,80.34
2018-02-07T05:33:23.910Z,80.53
2018-02-07T05:34:23.894Z,80.44
2018-02-07T05:35:23.891Z,80.53
2018-02-07T05:36:23.869Z,81.01
2018-02-07T05:37:23.850Z,81.29
2018-02-07T05:38:23.838Z,81.57
2018-02-07T05:39:23.827Z,80.82
2018-02-07T05:40:23.812Z,80.63
2018-02-07T05:41:23.805Z,81.38
2018-02-07T05:42:23.789Z,81.48
2018-02-07T05:43:23.779Z,81.29
2018-02-07T05:44:23.769Z,81.29
2018-02-07T05:45:23.753Z,81.67
2018-02-07T05:46:23.735Z,82.32
2018-02-07T05:47:23.724Z,82.14
2018-02-07T05:48:23.709Z,82.04
2018-02-07T05:49:23.694Z,82.04
2018-02-07T05:50:23.678Z,82.14
2018-02-07T05:51:23.664Z,82.42
2018-02-07T05:52:23.652Z,82.70
2018-02-07T05:53:23.642Z,82.42
2018-02-07T05:54:23.628Z,82.32
2018-02-07T05:55:23.616Z,82.70
2018-02-07T05:56:23.597Z,83.27
2018-02-07T05:57:23.584Z,83.17
2018-02-07T05:58:23.571Z,82.70
2018-02-07T05:59:23.557Z,82.89
2018-02-07T06:00:23.542Z,82.70
2018-02-07T06:01:23.525Z,83.08
2018-02-07T06:02:23.512Z,82.14
2018-02-07T06:03:23.503Z,82.61
2018-02-07T06:04:23.484Z,82.32
2018-02-07T06:05:23.472Z,82.23
2018-02-07T06:06:23.461Z,82.14
2018-02-07T06:07:23.438Z,82.42
2018-02-07T06:08:23.425Z,81.67
2018-02-07T06:09:23.416Z,81.67
2018-02-07T06:10:23.405Z,81.38
2018-02-07T06:11:23.388Z,81.95
2018-02-07T06:12:23.377Z,82.14
2018-02-07T06:13:23.359Z,81.76
2018-02-07T06:14:23.343Z,82.32
2018-02-07T06:15:23.331Z,82.89
2018-02-07T06:16:23.319Z,82.89
2018-02-07T06:17:23.298Z,82.80
2018-02-07T06:18:23.289Z,82.42
2018-02-07T06:19:23.276Z,82.89
2018-02-07T06:20:23.262Z,83.08
2018-02-07T06:21:23.252Z,82.99
2018-02-07T06:22:23.235Z,82.89
2018-02-07T06:23:23.215Z,82.99
2018-02-07T06:24:23.302Z,82.51
2018-02-07T06:25:23.191Z,82.99
2018-02-07T06:26:23.177Z,82.99
2018-02-07T06:27:23.160Z,82.89
2018-02-07T06:28:23.152Z,82.61
2018-02-07T06:29:23.129Z,83.27
2018-02-07T06:30:23.115Z,82.80
2018-02-07T06:31:23.110Z,82.70
2018-02-07T06:32:23.092Z,82.32
2018-02-07T06:33:23.077Z,82.32
2018-02-07T06:34:23.060Z,82.32
2018-02-07T06:35:23.047Z,82.32
2018-02-07T06:36:23.040Z,82.89
2018-02-07T06:37:23.018Z,82.80
2018-02-07T06:38:23.020Z,82.51
2018-02-07T06:39:23.025Z,83.27
2018-02-07T06:40:22.972Z,83.27
2018-02-07T06:41:22.965Z,82.51
2018-02-07T06:42:22.961Z,83.46
2018-02-07T06:43:22.935Z,82.99
2018-02-07T06:44:22.922Z,83.36
2018-02-07T06:45:22.901Z,83.36
2018-02-07T06:46:22.890Z,83.08
2018-02-07T06:47:22.875Z,82.51
2018-02-07T06:48:22.861Z,82.42
2018-02-07T06:49:22.846Z,82.42
2018-02-07T06:50:22.828Z,82.14
2018-02-07T06:51:22.815Z,82.32
2018-02-07T06:52:22.805Z,82.04
2018-02-07T06:53:22.791Z,82.51
2018-02-07T06:54:22.780Z,82.51
2018-02-07T06:55:22.756Z,83.08
2018-02-07T06:56:22.742Z,83.46
2018-02-07T06:57:22.738Z,83.27
2018-02-07T06:58:22.721Z,82.89
2018-02-07T06:59:22.707Z,82.70
2018-02-07T07:00:22.703Z,82.89
2018-02-07T07:01:22.678Z,82.61
2018-02-07T07:02:22.662Z,83.36
2018-02-07T07:03:22.648Z,82.42
2018-02-07T07:04:22.639Z,82.80
2018-02-07T07:05:22.661Z,83.27
2018-02-07T07:06:22.625Z,83.23
2018-02-07T07:07:22.588Z,82.95
2018-02-07T07:08:22.574Z,83.14
2018-02-07T07:09:22.569Z,82.89
2018-02-07T07:10:22.553Z,83.17
2018-02-07T07:11:22.532Z,83.27
2018-02-07T07:12:22.517Z,82.70
2018-02-07T07:13:22.508Z,82.42
2018-02-07T07:14:22.495Z,82.51
2018-02-07T07:15:22.476Z,82.47
2018-02-07T07:16:22.463Z,83.27
2018-02-07T07:17:22.444Z,83.27
2018-02-07T07:18:22.431Z,83.17
2018-02-07T07:19:22.423Z,83.17
2018-02-07T07:20:22.410Z,83.08
2018-02-07T07:21:22.389Z,83.36
2018-02-07T07:22:22.377Z,82.32
2018-02-07T07:23:22.359Z,82.14
2018-02-07T07:24:22.344Z,82.32
2018-02-07T07:25:22.338Z,82.61
2018-02-07T07:26:22.425Z,82.51
2018-02-07T07:27:22.303Z,82.32
2018-02-07T07:28:22.287Z,82.32
2018-02-07T07:29:22.284Z,82.61
2018-02-07T07:30:22.265Z,83.27
2018-02-07T07:31:22.253Z,82.99
2018-02-07T07:32:22.243Z,83.17
2018-02-07T07:33:22.221Z,82.89
2018-02-07T07:34:22.205Z,82.61
2018-02-07T07:35:22.198Z,83.08
2018-02-07T07:36:22.184Z,82.99
2018-02-07T07:37:22.164Z,82.99
2018-02-07T07:38:22.151Z,82.70
2018-02-07T07:39:22.135Z,83.27
2018-02-07T07:40:22.124Z,83.23
2018-02-07T07:41:22.112Z,83.65
2018-02-07T07:42:22.098Z,82.99
2018-02-07T07:43:22.082Z,82.80
2018-02-07T07:44:22.065Z,82.89
2018-02-07T07:45:22.057Z,83.27
2018-02-07T07:46:22.041Z,83.46
2018-02-07T07:47:22.035Z,83.14
2018-02-07T07:48:22.011Z,83.14
2018-02-07T07:49:21.998Z,82.70
2018-02-07T07:50:21.982Z,82.61
2018-02-07T07:51:21.970Z,83.08
2018-02-07T07:52:21.955Z,83.17
2018-02-07T07:53:21.938Z,82.99
2018-02-07T07:54:24.081Z,82.99
2018-02-07T07:55:21.906Z,83.46
2018-02-07T07:56:21.892Z,82.70
2018-02-07T07:57:21.889Z,82.70
2018-02-07T07:58:21.936Z,82.32
2018-02-07T07:59:21.858Z,82.89
2018-02-07T08:00:21.841Z,83.36
2018-02-07T08:01:21.823Z,82.89
2018-02-07T08:02:21.810Z,82.23
2018-02-07T08:03:21.797Z,82.32
2018-02-07T08:04:21.784Z,82.51
2018-02-07T08:05:21.776Z,82.23
2018-02-07T08:06:21.811Z,82.14
2018-02-07T08:07:21.743Z,82.14
2018-02-07T08:08:21.724Z,82.28
2018-02-07T08:09:21.718Z,82.76
2018-02-07T08:10:21.710Z,82.47
2018-02-07T08:11:21.687Z,83.04
2018-02-07T08:12:21.674Z,83.51
2018-02-07T08:13:21.660Z,83.33
2018-02-07T08:14:21.644Z,83.08
2018-02-07T08:15:21.631Z,83.17
2018-02-07T08:16:21.618Z,82.47
2018-02-07T08:17:21.603Z,82.42
2018-02-07T08:18:21.587Z,82.99
2018-02-07T08:19:21.569Z,82.61
2018-02-07T08:20:21.554Z,82.99
2018-02-07T08:21:21.545Z,82.32
2018-02-07T08:22:21.537Z,82.42
2018-02-07T08:23:21.520Z,82.51
2018-02-07T08:24:21.502Z,82.32
2018-02-07T08:25:21.491Z,82.32
2018-02-07T08:26:21.476Z,82.51
2018-02-07T08:27:21.461Z,82.14
2018-02-07T08:28:21.446Z,81.76
2018-02-07T08:29:21.432Z,81.95
2018-02-07T08:30:21.415Z,81.67
2018-02-07T08:31:21.404Z,81.76
2018-02-07T08:32:21.391Z,82.14
2018-02-07T08:33:21.380Z,81.38
2018-02-07T08:34:21.358Z,82.14
2018-02-07T08:35:21.348Z,81.85
2018-02-07T08:36:21.632Z,81.20
2018-02-07T08:37:21.323Z,81.57
2018-02-07T08:38:21.311Z,81.48
2018-02-07T08:39:21.289Z,81.38
2018-02-07T08:40:21.278Z,80.72
2018-02-07T08:41:21.273Z,80.63
2018-02-07T08:42:21.260Z,81.38
2018-02-07T08:43:21.240Z,81.29
2018-02-07T08:44:21.230Z,80.63
2018-02-07T08:45:21.208Z,80.63
2018-02-07T08:46:21.197Z,80.72
2018-02-07T08:47:21.185Z,80.82
2018-02-07T08:48:21.490Z,81.20
2018-02-07T08:49:21.162Z,81.57
2018-02-07T08:50:21.143Z,82.23
2018-02-07T08:51:21.134Z,82.23
2018-02-07T08:52:21.108Z,82.14
2018-02-07T08:53:21.110Z,81.95
2018-02-07T08:54:21.090Z,81.38
2018-02-07T08:55:21.077Z,81.38
2018-02-07T08:56:21.082Z,80.53
2018-02-07T08:57:21.046Z,79.87
2018-02-07T08:58:21.037Z,80.06
2018-02-07T08:59:21.015Z,80.25
2018-02-07T09:00:21.007Z,79.82
2018-02-07T09:01:20.985Z,79.82
2018-02-07T09:02:20.973Z,78.36
2018-02-07T09:03:20.964Z,78.68
2018-02-07T09:04:20.951Z,78.17
2018-02-07T09:05:20.934Z,78.55
2018-02-07T09:06:20.920Z,78.64
2018-02-07T09:07:20.911Z,79.06
2018-02-07T09:08:20.890Z,78.64
2018-02-07T09:09:20.880Z,78.64
2018-02-07T09:10:20.868Z,78.45
2018-02-07T09:11:20.858Z,79.11
2018-02-07T09:12:20.839Z,79.02
2018-02-07T09:13:20.831Z,78.55
2018-02-07T09:14:20.817Z,78.21
2018-02-07T09:15:20.802Z,78.40
2018-02-07T09:16:20.786Z,77.83
2018-02-07T09:17:20.775Z,77.45
2018-02-07T09:18:20.759Z,76.98
2018-02-07T09:19:20.751Z,76.42
2018-02-07T09:20:20.735Z,75.95
2018-02-07T09:21:20.715Z,75.57
2018-02-07T09:22:20.706Z,75.57
2018-02-07T09:23:20.689Z,75.76
2018-02-07T09:24:20.677Z,75.57
2018-02-07T09:25:20.668Z,75.28
2018-02-07T09:26:20.655Z,74.85
2018-02-07T09:27:20.642Z,74.81
2018-02-07T09:28:20.623Z,74.53
2018-02-07T09:29:20.618Z,74.62
2018-02-07T09:30:20.603Z,74.95
2018-02-07T09:31:20.590Z,74.15
2018-02-07T09:32:20.576Z,74.15
2018-02-07T09:33:20.561Z,74.71
2018-02-07T09:34:20.550Z,74.53
2018-02-07T09:35:20.537Z,74.53
2018-02-07T09:36:20.526Z,74.19
2018-02-07T09:37:20.515Z,73.81
2018-02-07T09:38:20.497Z,72.96
2018-02-07T09:39:20.489Z,72.96
2018-02-07T09:40:20.469Z,72.86
2018-02-07T09:41:20.465Z,72.67
2018-02-07T09:42:20.451Z,72.77
2018-02-07T09:43:20.435Z,72.49
2018-02-07T09:44:20.423Z,72.11
2018-02-07T09:45:20.416Z,71.92
2018-02-07T09:46:20.405Z,72.02
2018-02-07T09:47:20.388Z,71.73
2018-02-07T09:48:20.378Z,71.83
2018-02-07T09:49:20.372Z,71.83
2018-02-07T09:50:20.357Z,71.64
2018-02-07T09:51:20.344Z,70.31
2018-02-07T09:52:20.337Z,70.31
2018-02-07T09:53:20.315Z,70.69
2018-02-07T09:54:20.305Z,70.69
2018-02-07T09:55:20.299Z,70.78
2018-02-07T09:56:20.285Z,70.50
2018-02-07T09:57:20.279Z,69.84
2018-02-07T09:58:20.266Z,70.50
2018-02-07T09:59:20.249Z,69.46
2018-02-07T10:00:20.236Z,69.84
2018-02-07T10:01:20.231Z,70.50
2018-02-07T10:02:20.215Z,70.69
2018-02-07T10:03:20.206Z,70.50
2018-02-07T10:04:20.194Z,69.49
2018-02-07T10:05:20.195Z,69.68
2018-02-07T10:06:20.169Z,69.46
2018-02-07T10:07:20.160Z,69.56
2018-02-07T10:08:20.147Z,69.84
2018-02-07T10:09:20.141Z,70.03
2018-02-07T10:10:20.127Z,70.50
2018-02-07T10:11:20.114Z,70.35
2018-02-07T10:12:20.106Z,69.37
2018-02-07T10:13:20.083Z,69.46
2018-02-07T10:14:20.073Z,69.93
2018-02-07T10:15:20.066Z,70.31
2018-02-07T10:16:20.057Z,70.31
2018-02-07T10:17:20.045Z,70.59
2018-02-07T10:18:20.027Z,70.31
2018-02-07T10:19:20.016Z,69.56
2018-02-07T10:20:20.006Z,69.37
2018-02-07T10:21:19.997Z,69.65
2018-02-07T10:22:19.987Z,70.40
2018-02-07T10:23:19.969Z,70.12
2018-02-07T10:24:19.953Z,70.40
2018-02-07T10:25:19.953Z,69.65
2018-02-07T10:26:19.938Z,70.03
2018-02-07T10:27:19.922Z,69.78
2018-02-07T10:28:19.911Z,69.87
2018-02-07T10:29:19.895Z,68.93
2018-02-07T10:30:19.885Z,68.46
2018-02-07T10:31:19.874Z,68.27
2018-02-07T10:32:19.861Z,68.08
2018-02-07T10:33:19.867Z,68.14
2018-02-07T10:34:19.835Z,69.09
2018-02-07T10:35:19.828Z,69.27
2018-02-07T10:36:19.913Z,68.61
2018-02-07T10:37:19.805Z,68.84
2018-02-07T10:38:19.795Z,68.36
2018-02-07T10:39:19.782Z,68.36
2018-02-07T10:40:19.769Z,68.17
2018-02-07T10:41:19.773Z,67.98
2018-02-07T10:42:19.747Z,67.51
2018-02-07T10:43:19.738Z,67.79
2018-02-07T10:44:19.725Z,68.17
2018-02-07T10:45:19.706Z,68.17
2018-02-07T10:46:19.695Z,68.17
2018-02-07T10:47:19.690Z,68.36
2018-02-07T10:48:19.677Z,68.36
2018-02-07T10:49:19.662Z,68.17
2018-02-07T10:50:19.649Z,68.36
2018-02-07T10:51:19.634Z,69.21
2018-02-07T10:52:19.623Z,68.46
2018-02-07T10:53:19.621Z,68.36
2018-02-07T10:54:19.757Z,68.36
2018-02-07T10:55:19.597Z,67.98
2018-02-07T10:56:19.576Z,67.41
2018-02-07T10:57:19.568Z,67.22
2018-02-07T10:58:19.556Z,66.85
2018-02-07T10:59:19.546Z,67.98
2018-02-07T11:00:19.834Z,68.36
2018-02-07T11:01:19.535Z,68.36
2018-02-07T11:02:19.506Z,67.98
2018-02-07T11:03:19.495Z,67.51
2018-02-07T11:04:19.488Z,67.79
2018-02-07T11:05:19.468Z,67.70
2018-02-07T11:06:19.460Z,68.08
2018-02-07T11:07:19.447Z,67.89
2018-02-07T11:08:19.434Z,67.03
2018-02-07T11:09:19.426Z,67.13
2018-02-07T11:10:19.419Z,66.75
2018-02-07T11:11:19.406Z,67.07
2018-02-07T11:12:19.385Z,65.56
2018-02-07T11:13:19.377Z,65.28
2018-02-07T11:14:19.374Z,65.28
2018-02-07T11:15:19.356Z,64.86
2018-02-07T11:16:19.345Z,65.09
2018-02-07T11:17:19.331Z,65.15
2018-02-07T11:18:19.323Z,64.77
2018-02-07T11:19:19.319Z,65.24
2018-02-07T11:20:19.319Z,65.62
2018-02-07T11:21:19.284Z,65.62
2018-02-07T11:22:19.273Z,65.62
2018-02-07T11:23:19.262Z,65.62
2018-02-07T11:24:19.256Z,65.62
2018-02-07T11:25:19.265Z,65.43
2018-02-07T11:26:19.233Z,65.72
2018-02-07T11:27:19.221Z,65.75
2018-02-07T11:28:19.210Z,65.18
2018-02-07T11:29:19.202Z,65.18
2018-02-07T11:30:19.239Z,65.09
2018-02-07T11:31:19.176Z,64.52
2018-02-07T11:32:19.168Z,63.76
2018-02-07T11:33:19.157Z,64.23
2018-02-07T11:34:19.142Z,64.42
2018-02-07T11:35:19.132Z,64.52
2018-02-07T11:36:19.424Z,64.33
2018-02-07T11:37:19.111Z,63.10
2018-02-07T11:38:19.099Z,63.48
2018-02-07T11:39:19.091Z,63.01
2018-02-07T11:40:19.078Z,64.23
2018-02-07T11:41:19.068Z,63.67
2018-02-07T11:42:19.365Z,63.85
2018-02-07T11:43:19.042Z,63.10
2018-02-07T11:44:19.037Z,63.48
2018-02-07T11:45:19.028Z,63.20
2018-02-07T11:46:19.014Z,63.57
2018-02-07T11:47:19.005Z,63.39
2018-02-07T11:48:19.300Z,63.39
2018-02-07T11:49:18.979Z,63.51
2018-02-07T11:50:18.970Z,62.66
2018-02-07T11:51:18.966Z,61.90
2018-02-07T11:52:18.951Z,62.53
2018-02-07T11:53:18.940Z,62.63
2018-02-07T11:54:18.930Z,62.47
2018-02-07T11:55:18.918Z,62.56
2018-02-07T11:56:18.909Z,62.47
2018-02-07T11:57:18.904Z,61.90
2018-02-07T11:58:18.895Z,60.58
2018-02-07T11:59:18.879Z,61.05
2018-02-07T12:00:18.871Z,61.24
2018-02-07T12:01:18.864Z,61.33
2018-02-07T12:02:18.859Z,62.09
2018-02-07T12:03:18.842Z,62.09
2018-02-07T12:04:18.833Z,62.47
2018-02-07T12:05:18.825Z,61.90
2018-02-07T12:06:18.814Z,62.09
2018-02-07T12:07:18.811Z,62.66
2018-02-07T12:08:18.799Z,61.93
2018-02-07T12:09:18.791Z,60.41
2018-02-07T12:10:18.778Z,59.12
2018-02-07T12:11:18.767Z,59.22
2018-02-07T12:12:18.757Z,58.74
2018-02-07T12:13:18.758Z,57.35
2018-02-07T12:14:18.755Z,56.21
2018-02-07T12:15:18.738Z,55.52
2018-02-07T12:16:18.771Z,55.71
2018-02-07T12:17:18.716Z,56.75
2018-02-07T12:18:18.709Z,57.23
2018-02-07T12:19:18.704Z,56.85
2018-02-07T12:20:18.702Z,55.90
2018-02-07T12:21:18.694Z,56.82
2018-02-07T12:22:18.688Z,57.76
2018-02-07T12:23:18.674Z,57.67
2018-02-07T12:24:18.970Z,57.76
2018-02-07T12:25:18.669Z,58.14
2018-02-07T12:26:18.656Z,58.17
2018-02-07T12:27:18.652Z,58.17
2018-02-07T12:28:18.648Z,56.68
2018-02-07T12:29:18.639Z,55.36
2018-02-07T12:30:18.632Z,54.60
2018-02-07T12:31:18.628Z,53.84
2018-02-07T12:32:18.656Z,53.91
2018-02-07T12:33:18.679Z,54.76
2018-02-07T12:34:18.614Z,55.24
2018-02-07T12:35:18.602Z,54.79
2018-02-07T12:36:18.651Z,54.50
2018-02-07T12:37:18.599Z,53.96
2018-02-07T12:38:18.600Z,53.18
2018-02-07T12:39:18.610Z,53.94
2018-02-07T12:40:18.585Z,53.56
2018-02-07T12:41:18.590Z,53.81
2018-02-07T12:42:18.583Z,53.91
2018-02-07T12:43:18.578Z,55.05
2018-02-07T12:44:18.577Z,55.64
2018-02-07T12:45:18.569Z,54.32
2018-02-07T12:46:18.567Z,53.91
2018-02-07T12:47:18.569Z,54.76
2018-02-07T13:03:44.946Z,49.88
2018-02-07T13:04:44.650Z,51.14
2018-02-07T13:05:44.644Z,50.29
2018-02-07T13:06:44.640Z,49.15
2018-02-07T13:07:44.645Z,49.34